createdAt,value
2019-06-20T00:01:35.125Z,282.07
2019-06-20T00:04:01.225Z,233.05
2019-06-20T00:06:27.418Z,240.75
2019-06-20T00:08:53.658Z,256.68
2019-06-20T00:11:19.855Z,254.63
2019-06-20T00:13:45.924Z,233.47
2019-06-20T00:16:12.015Z,238.32
2019-06-20T00:18:38.080Z,236.50
2019-06-20T00:21:04.148Z,238.60
2019-06-20T00:23:30.245Z,232.05
2019-06-20T00:25:56.409Z,232.37
2019-06-20T00:28:22.500Z,242.77
2019-06-20T00:30:48.583Z,237.93
2019-06-20T00:33:14.658Z,226.75
2019-06-20T00:35:40.939Z,225.72
2019-06-20T00:38:07.010Z,241.40
2019-06-20T00:40:33.110Z,239.27
2019-06-20T00:42:59.176Z,237.93
2019-06-20T00:45:25.239Z,245.30
2019-06-20T00:47:51.346Z,235.10
2019-06-20T00:50:17.512Z,239.02
2019-06-20T00:52:43.599Z,214.60
2019-06-20T00:55:10.206Z,231.13
2019-06-20T00:57:36.294Z,236.65
2019-06-20T01:00:06.435Z,229.43
2019-06-20T01:02:32.611Z,214.70
2019-06-20T01:04:58.687Z,214.25
2019-06-20T01:07:24.888Z,229.32
2019-06-20T01:09:50.972Z,234.52
2019-06-20T01:12:17.052Z,225.03
2019-06-20T01:14:43.256Z,302.93
2019-06-20T01:17:09.425Z,265.70
2019-06-20T01:19:35.500Z,268.30
2019-06-20T01:22:01.644Z,274.65
2019-06-20T01:24:27.841Z,279.02
2019-06-20T01:26:53.936Z,253.55
2019-06-20T01:29:20.017Z,266.98
2019-06-20T01:31:46.174Z,318.48
2019-06-20T01:34:12.263Z,241.08
2019-06-20T01:36:38.336Z,230.40
2019-06-20T01:39:05.542Z,246.10
2019-06-20T01:41:31.604Z,231.07
2019-06-20T01:43:57.680Z,248.82
2019-06-20T01:46:23.868Z,216.00
2019-06-20T01:48:49.956Z,240.22
2019-06-20T01:51:16.284Z,230.67
2019-06-20T01:53:42.352Z,218.67
2019-06-20T01:56:08.420Z,226.00
2019-06-20T01:58:34.525Z,239.65
2019-06-20T02:01:00.708Z,229.28
2019-06-20T02:03:26.771Z,209.85
2019-06-20T02:05:52.871Z,226.47
2019-06-20T02:08:18.936Z,220.70
2019-06-20T02:10:45.154Z,216.23
2019-06-20T02:13:11.356Z,224.35
2019-06-20T02:15:37.537Z,221.72
2019-06-20T02:18:03.939Z,215.43
2019-06-20T02:20:49.374Z,228.35
2019-06-20T02:23:15.488Z,211.35
2019-06-20T02:25:41.572Z,228.30
2019-06-20T02:28:07.639Z,237.05
2019-06-20T02:30:33.725Z,213.05
2019-06-20T02:32:59.893Z,215.77
2019-06-20T02:35:26.002Z,217.60
2019-06-20T02:37:52.186Z,230.40
2019-06-20T02:40:18.647Z,210.80
2019-06-20T02:42:45.032Z,219.22
2019-06-20T02:45:11.608Z,205.18
2019-06-20T02:47:37.797Z,226.15
2019-06-20T02:50:04.969Z,222.37
2019-06-20T02:52:31.237Z,209.37
2019-06-20T02:54:57.322Z,226.10
2019-06-20T02:57:23.408Z,230.62
2019-06-20T02:59:49.499Z,220.85
2019-06-20T03:02:15.664Z,226.50
2019-06-20T03:04:45.480Z,233.63
2019-06-20T03:07:09.733Z,223.13
2019-06-20T03:09:35.801Z,214.50
2019-06-20T03:12:01.868Z,208.40
2019-06-20T03:14:27.947Z,206.47
2019-06-20T03:16:54.015Z,212.85
2019-06-20T03:19:20.112Z,217.75
2019-06-20T03:21:46.286Z,214.63
2019-06-20T03:24:12.349Z,233.80
2019-06-20T03:26:38.432Z,212.45
2019-06-20T03:29:04.508Z,203.35
2019-06-20T03:31:30.712Z,214.80
2019-06-20T03:33:56.890Z,211.55
2019-06-20T03:36:22.972Z,211.45
2019-06-20T03:38:49.059Z,216.42
2019-06-20T03:41:15.132Z,210.08
2019-06-20T03:43:41.240Z,204.32
2019-06-20T03:46:07.387Z,226.07
2019-06-20T03:48:33.565Z,215.65
2019-06-20T03:50:59.641Z,214.48
2019-06-20T03:53:25.736Z,218.57
2019-06-20T03:55:51.803Z,206.32
2019-06-20T03:58:17.893Z,219.82
2019-06-20T04:00:43.985Z,213.77
2019-06-20T04:03:10.141Z,219.32
2019-06-20T04:05:36.329Z,206.65
2019-06-20T04:08:02.812Z,217.57
2019-06-20T04:10:28.984Z,218.17
2019-06-20T04:12:55.056Z,212.97
2019-06-20T04:15:21.151Z,204.68
2019-06-20T04:17:47.313Z,202.47
2019-06-20T04:20:13.397Z,210.57
2019-06-20T04:22:39.464Z,215.95
2019-06-20T04:25:06.365Z,203.25
2019-06-20T04:27:32.437Z,219.07
2019-06-20T04:29:58.625Z,231.57
2019-06-20T04:32:24.699Z,213.30
2019-06-20T04:34:50.820Z,230.55
2019-06-20T04:37:16.884Z,203.15
2019-06-20T04:39:42.961Z,203.45
2019-06-20T04:42:09.023Z,226.20
2019-06-20T04:44:35.109Z,231.57
2019-06-20T04:47:05.585Z,228.15
2019-06-20T04:49:31.669Z,262.60
2019-06-20T04:51:57.745Z,245.70
2019-06-20T04:54:23.836Z,218.02
2019-06-20T04:56:49.924Z,234.45
2019-06-20T04:59:16.115Z,233.10
2019-06-20T05:01:42.245Z,303.37
2019-06-20T05:04:08.372Z,277.20
2019-06-20T05:06:34.449Z,271.32
2019-06-20T05:09:00.528Z,260.10
2019-06-20T05:11:26.597Z,274.37
2019-06-20T05:13:52.673Z,249.45
2019-06-20T05:16:18.760Z,291.63
2019-06-20T05:18:44.824Z,250.15
2019-06-20T05:21:10.924Z,226.88
2019-06-20T05:23:37.005Z,249.58
2019-06-20T05:26:03.083Z,229.38
2019-06-20T05:28:29.173Z,248.97
2019-06-20T05:30:55.236Z,256.10
2019-06-20T05:33:21.309Z,238.22
2019-06-20T05:35:47.407Z,265.68
2019-06-20T05:38:13.672Z,265.90
2019-06-20T05:40:39.741Z,261.07
2019-06-20T05:43:05.825Z,284.10
2019-06-20T05:45:31.937Z,281.05
2019-06-20T05:47:58.087Z,268.88
2019-06-20T05:50:24.258Z,297.55
2019-06-20T05:52:50.332Z,291.10
2019-06-20T05:55:16.540Z,291.88
2019-06-20T05:57:42.605Z,291.80
2019-06-20T06:00:10.504Z,321.90
2019-06-20T06:02:36.703Z,301.15
2019-06-20T06:05:04.756Z,330.18
2019-06-20T06:07:30.857Z,341.42
2019-06-20T06:09:57.027Z,308.90
2019-06-20T06:12:23.193Z,279.32
2019-06-20T06:14:49.255Z,274.90
2019-06-20T06:17:15.342Z,280.12
2019-06-20T06:19:41.432Z,300.00
2019-06-20T06:22:07.601Z,297.20
2019-06-20T06:24:33.668Z,294.73
2019-06-20T06:27:00.166Z,307.77
2019-06-20T06:29:26.551Z,305.55
2019-06-20T06:31:52.636Z,334.83
2019-06-20T06:34:21.898Z,296.87
2019-06-20T06:36:46.719Z,303.07
2019-06-20T06:39:12.884Z,304.48
2019-06-20T06:41:38.981Z,290.35
2019-06-20T06:44:07.617Z,305.30
2019-06-20T06:46:43.281Z,297.50
2019-06-20T06:49:01.078Z,352.98
2019-06-20T06:51:27.966Z,367.60
2019-06-20T06:53:54.046Z,359.48
2019-06-20T06:56:20.153Z,374.88
2019-06-20T06:58:46.310Z,372.40
2019-06-20T07:01:12.401Z,383.38
2019-06-20T07:03:38.473Z,375.65
2019-06-20T07:06:04.559Z,377.98
2019-06-20T07:08:30.647Z,373.82
2019-06-20T07:10:56.828Z,406.17
2019-06-20T07:13:22.921Z,426.52
2019-06-20T07:15:49.094Z,405.77
2019-06-20T07:18:15.260Z,391.27
2019-06-20T07:20:41.439Z,398.20
2019-06-20T07:23:07.481Z,368.57
2019-06-20T07:25:33.772Z,360.93
2019-06-20T07:27:59.848Z,374.73
2019-06-20T07:30:26.217Z,366.93
2019-06-20T07:32:52.336Z,417.87
2019-06-20T07:35:18.992Z,404.83
2019-06-20T07:37:45.059Z,448.90
2019-06-20T07:40:11.783Z,429.62
2019-06-20T07:42:38.011Z,418.80
2019-06-20T07:45:07.016Z,410.23
2019-06-20T07:47:33.185Z,403.88
2019-06-20T07:49:59.252Z,416.25
2019-06-20T07:52:25.336Z,430.67
2019-06-20T07:54:51.415Z,423.95
2019-06-20T07:57:17.537Z,424.40
2019-06-20T07:59:43.709Z,415.23
2019-06-20T08:02:09.873Z,408.55
2019-06-20T08:04:35.956Z,397.82
2019-06-20T08:07:02.029Z,412.18
2019-06-20T08:09:43.977Z,408.95
2019-06-20T08:11:56.102Z,429.90
2019-06-20T08:14:22.180Z,449.95
2019-06-20T08:16:48.321Z,517.98
2019-06-20T08:19:14.557Z,449.32
2019-06-20T08:21:43.970Z,473.80
2019-06-20T08:24:08.630Z,472.02
2019-06-20T08:26:34.702Z,492.18
2019-06-20T08:29:16.613Z,499.65
2019-06-20T08:31:28.848Z,511.85
2019-06-20T08:33:55.957Z,507.38
2019-06-20T08:36:22.911Z,496.95
2019-06-20T08:38:48.988Z,462.15
2019-06-20T08:41:15.078Z,486.73
2019-06-20T08:43:41.150Z,471.07
2019-06-20T08:46:10.309Z,480.67
2019-06-20T08:48:35.217Z,458.65
2019-06-20T08:51:02.247Z,479.45
2019-06-20T08:53:28.776Z,487.15
2019-06-20T08:55:56.307Z,476.05
2019-06-20T08:58:23.160Z,482.43
2019-06-20T09:00:49.337Z,482.95
2019-06-20T09:03:15.453Z,480.48
2019-06-20T09:05:41.604Z,499.10
2019-06-20T09:08:11.135Z,531.10
2019-06-20T09:10:37.296Z,514.60
2019-06-20T09:13:04.159Z,551.50
2019-06-20T09:15:30.347Z,558.92
2019-06-20T09:17:56.803Z,583.25
2019-06-20T09:20:23.311Z,575.08
2019-06-20T09:22:49.384Z,538.12
2019-06-20T09:25:15.683Z,544.58
2019-06-20T09:27:41.763Z,505.93
2019-06-20T09:30:10.359Z,526.22
2019-06-20T09:32:36.760Z,556.42
2019-06-20T09:35:08.253Z,584.58
2019-06-20T09:37:34.640Z,582.88
2019-06-20T09:40:00.708Z,598.25
2019-06-20T09:42:26.804Z,634.73
2019-06-20T09:44:54.074Z,619.88
2019-06-20T09:47:20.248Z,654.27
2019-06-20T09:49:49.233Z,637.30
2019-06-20T09:52:14.634Z,656.15
2019-06-20T09:54:40.825Z,637.65
2019-06-20T09:57:06.896Z,636.38
2019-06-20T09:59:32.964Z,603.02
2019-06-20T10:01:59.068Z,572.87
2019-06-20T10:04:25.150Z,533.62
2019-06-20T10:06:52.314Z,501.90
2019-06-20T10:09:18.634Z,465.95
2019-06-20T10:11:45.314Z,445.52
2019-06-20T10:14:12.964Z,442.93
2019-06-20T10:16:45.636Z,430.67
2019-06-20T10:19:07.036Z,396.55
2019-06-20T10:21:33.108Z,402.88
2019-06-20T10:23:59.199Z,389.60
2019-06-20T10:26:25.274Z,398.25
2019-06-20T10:28:51.504Z,384.15
2019-06-20T10:31:17.615Z,373.40
2019-06-20T10:33:45.165Z,338.68
2019-06-20T10:36:11.716Z,338.50
2019-06-20T10:38:37.803Z,351.92
2019-06-20T10:41:03.871Z,345.90
2019-06-20T10:43:30.109Z,344.00
2019-06-20T10:45:56.712Z,352.60
2019-06-20T10:48:22.964Z,362.55
2019-06-20T10:50:49.814Z,386.57
2019-06-20T10:53:16.021Z,364.85
2019-06-20T10:55:43.297Z,389.65
2019-06-20T10:58:09.591Z,370.70
2019-06-20T11:00:35.771Z,361.62
2019-06-20T11:03:02.052Z,384.92
2019-06-20T11:05:28.115Z,386.75
2019-06-20T11:07:54.201Z,404.80
2019-06-20T11:10:20.868Z,411.15
2019-06-20T11:12:52.359Z,420.42
2019-06-20T11:15:17.719Z,419.43
2019-06-20T11:17:44.150Z,416.68
2019-06-20T11:20:11.589Z,450.60
2019-06-20T11:22:38.399Z,437.32
2019-06-20T11:25:05.749Z,441.68
2019-06-20T11:27:31.933Z,486.50
2019-06-20T11:29:58.016Z,502.82
2019-06-20T11:32:24.088Z,514.87
2019-06-20T11:34:50.171Z,527.65
2019-06-20T11:37:16.286Z,528.15
2019-06-20T11:39:43.246Z,509.98
2019-06-20T11:42:09.511Z,516.55
2019-06-20T11:44:37.013Z,536.33
2019-06-20T11:47:03.254Z,556.78
2019-06-20T11:49:29.438Z,556.90
2019-06-20T11:51:55.500Z,585.37
2019-06-20T11:54:21.593Z,574.58
2019-06-20T11:56:47.667Z,565.28
2019-06-20T11:59:13.749Z,598.08
2019-06-20T12:01:41.221Z,612.45
2019-06-20T12:04:09.493Z,627.55
2019-06-20T12:06:35.816Z,637.12
2019-06-20T12:09:02.183Z,639.70
2019-06-20T12:11:28.267Z,662.75
2019-06-20T12:13:54.334Z,628.98
2019-06-20T12:16:20.420Z,617.03
2019-06-20T12:18:47.293Z,608.45
2019-06-20T12:21:13.579Z,574.80
2019-06-20T12:23:40.670Z,590.67
2019-06-20T12:26:07.637Z,579.58
2019-06-20T12:28:33.706Z,581.23
2019-06-20T12:30:59.796Z,569.17
2019-06-20T12:33:25.874Z,549.10
2019-06-20T12:35:51.980Z,529.38
2019-06-20T12:38:18.175Z,543.58
2019-06-20T12:40:46.180Z,523.60
2019-06-20T12:43:12.454Z,528.30
2019-06-20T12:45:39.717Z,509.87
2019-06-20T12:48:06.509Z,513.10
2019-06-20T12:50:32.578Z,479.23
2019-06-20T12:52:58.668Z,484.00
2019-06-20T12:55:24.738Z,448.30
2019-06-20T12:57:51.117Z,437.77
2019-06-20T13:00:19.418Z,443.27
2019-06-20T13:02:45.711Z,442.35
2019-06-20T13:05:14.388Z,431.32
2019-06-20T13:07:42.162Z,406.35
2019-06-20T13:10:08.947Z,388.42
2019-06-20T13:12:35.004Z,378.10
2019-06-20T13:15:01.075Z,379.87
2019-06-20T13:17:27.141Z,368.97
2019-06-20T13:19:53.207Z,370.55
2019-06-20T13:22:19.267Z,363.37
2019-06-20T13:24:45.334Z,389.05
2019-06-20T13:27:11.405Z,332.62
2019-06-20T13:29:39.017Z,308.47
2019-06-20T13:32:05.368Z,315.82
2019-06-20T13:34:31.440Z,308.75
2019-06-20T13:36:57.544Z,299.88
2019-06-20T13:39:23.617Z,333.52
2019-06-20T13:41:50.309Z,296.25
2019-06-20T13:44:17.583Z,302.57
2019-06-20T13:46:44.591Z,371.48
2019-06-20T13:49:10.805Z,288.68
2019-06-20T13:51:36.908Z,270.48
2019-06-20T13:54:03.495Z,268.65
2019-06-20T13:56:29.667Z,276.62
2019-06-20T13:58:55.852Z,281.93
2019-06-20T14:01:22.054Z,246.07
2019-06-20T14:03:48.734Z,257.37
2019-06-20T14:06:15.041Z,237.57
2019-06-20T14:08:42.439Z,296.85
2019-06-20T14:11:09.223Z,285.65
2019-06-20T14:13:35.598Z,256.35
2019-06-20T14:16:01.732Z,191.75
2019-06-20T14:18:27.911Z,189.82
2019-06-20T14:20:55.214Z,216.68
2019-06-20T14:23:21.439Z,180.52
2019-06-20T14:25:48.676Z,164.57
2019-06-20T14:28:15.080Z,170.05
2019-06-20T14:30:41.259Z,227.35
2019-06-20T14:33:07.339Z,181.72
2019-06-20T14:35:33.425Z,252.07
2019-06-20T14:37:59.506Z,210.45
2019-06-20T14:40:25.575Z,189.35
2019-06-20T14:42:52.411Z,192.43
2019-06-20T14:45:19.129Z,184.43
2019-06-20T14:47:45.218Z,234.67
2019-06-20T14:50:12.191Z,174.07
2019-06-20T14:52:38.381Z,232.00
2019-06-20T14:55:06.373Z,229.43
2019-06-20T14:57:32.464Z,205.47
2019-06-20T14:59:58.533Z,178.97
2019-06-20T15:02:37.583Z,192.07
2019-06-20T15:04:52.695Z,193.02
2019-06-20T15:07:18.802Z,198.70
2019-06-20T15:09:46.259Z,185.60
2019-06-20T15:12:12.857Z,195.95
2019-06-20T15:14:39.026Z,179.25
2019-06-20T15:17:05.109Z,180.42
2019-06-20T15:19:31.176Z,202.32
2019-06-20T15:21:57.278Z,191.60
2019-06-20T15:24:23.453Z,186.57
2019-06-20T15:26:51.093Z,204.82
2019-06-20T15:29:17.592Z,184.93
2019-06-20T15:31:43.884Z,313.87
2019-06-20T15:34:10.060Z,225.87
2019-06-20T15:36:36.146Z,201.77
2019-06-20T15:39:05.428Z,228.52
2019-06-20T15:41:31.505Z,236.90
2019-06-20T15:43:57.887Z,240.00
2019-06-20T15:46:24.364Z,224.65
2019-06-20T15:48:50.466Z,258.63
2019-06-20T15:51:16.531Z,199.70
2019-06-20T15:53:42.604Z,298.48
2019-06-20T15:56:08.698Z,390.25
2019-06-20T15:58:34.857Z,411.65
2019-06-20T16:01:00.954Z,445.48
2019-06-20T16:03:27.024Z,469.58
2019-06-20T16:05:53.182Z,515.38
2019-06-20T16:08:19.283Z,571.05
2019-06-20T16:10:45.348Z,573.30
2019-06-20T16:13:11.474Z,584.50
2019-06-20T16:15:37.892Z,605.58
2019-06-20T16:18:03.960Z,656.52
2019-06-20T16:20:30.046Z,676.75
2019-06-20T16:22:56.121Z,691.80
2019-06-20T16:25:22.301Z,687.35
2019-06-20T16:27:48.366Z,675.45
2019-06-20T16:30:15.247Z,691.73
2019-06-20T16:32:41.499Z,699.80
2019-06-20T16:35:08.179Z,702.17
2019-06-20T16:37:34.614Z,740.25
2019-06-20T16:40:00.808Z,819.70
2019-06-20T16:42:26.876Z,873.10
2019-06-20T16:44:52.962Z,919.47
2019-06-20T16:47:19.134Z,929.73
2019-06-20T16:49:45.218Z,940.80
2019-06-20T16:52:11.292Z,969.07
2019-06-20T16:54:37.387Z,966.73
2019-06-20T16:57:03.554Z,968.33
2019-06-20T16:59:29.637Z,974.90
2019-06-20T17:01:55.706Z,986.97
2019-06-20T17:04:21.785Z,970.57
2019-06-20T17:06:47.877Z,944.53
2019-06-20T17:09:14.144Z,890.03
2019-06-20T17:11:40.237Z,832.37
2019-06-20T17:14:06.312Z,774.30
2019-06-20T17:16:32.400Z,690.62
2019-06-20T17:18:58.513Z,625.38
2019-06-20T17:21:24.757Z,571.08
2019-06-20T17:23:50.893Z,534.83
2019-06-20T17:26:17.008Z,478.27
2019-06-20T17:28:43.075Z,457.73
2019-06-20T17:31:09.262Z,442.40
2019-06-20T17:33:35.429Z,429.18
2019-06-20T17:36:14.406Z,417.03
2019-06-20T17:38:29.502Z,402.90
2019-06-20T17:40:55.602Z,379.73
2019-06-20T17:43:21.665Z,387.93
2019-06-20T17:45:47.744Z,357.20
2019-06-20T17:48:13.814Z,350.98
2019-06-20T17:50:40.013Z,335.10
2019-06-20T17:53:06.163Z,339.55
2019-06-20T17:55:32.227Z,308.38
2019-06-20T17:57:58.321Z,303.65
2019-06-20T18:00:25.093Z,301.07
2019-06-20T18:02:51.192Z,283.82
2019-06-20T18:05:17.585Z,342.80
2019-06-20T18:07:43.839Z,325.93
2019-06-20T18:10:12.076Z,292.90
2019-06-20T18:12:38.156Z,307.15
2019-06-20T18:15:05.520Z,315.05
2019-06-20T18:17:31.712Z,317.23
2019-06-20T18:19:57.780Z,335.32
2019-06-20T18:22:23.863Z,317.73
2019-06-20T18:24:49.944Z,312.08
2019-06-20T18:27:16.005Z,335.45
2019-06-20T18:29:42.090Z,302.45
2019-06-20T18:32:08.159Z,304.52
2019-06-20T18:34:34.245Z,327.93
2019-06-20T18:37:00.332Z,283.38
2019-06-20T18:39:26.424Z,284.32
2019-06-20T18:41:52.493Z,295.10
2019-06-20T18:44:18.672Z,313.98
2019-06-20T18:46:44.740Z,301.95
2019-06-20T18:49:10.837Z,242.55
2019-06-20T18:51:36.916Z,247.15
2019-06-20T18:54:03.495Z,255.00
2019-06-20T18:56:29.606Z,239.78
2019-06-20T18:58:55.753Z,229.43
2019-06-20T19:01:22.009Z,209.12
2019-06-20T19:03:48.130Z,223.78
2019-06-20T19:06:14.301Z,221.53
2019-06-20T19:08:40.384Z,272.17
2019-06-20T19:11:06.555Z,243.00
2019-06-20T19:13:32.719Z,264.75
2019-06-20T19:15:58.965Z,248.15
2019-06-20T19:18:25.102Z,247.52
2019-06-20T19:20:51.229Z,256.52
2019-06-20T19:23:17.287Z,241.65
2019-06-20T19:25:43.467Z,232.83
2019-06-20T19:28:09.565Z,276.02
2019-06-20T19:30:42.231Z,208.97
2019-06-20T19:33:08.401Z,256.23
2019-06-20T19:35:34.571Z,220.97
2019-06-20T19:38:00.769Z,209.45
2019-06-20T19:40:30.729Z,189.37
2019-06-20T19:42:56.929Z,209.85
2019-06-20T19:45:23.138Z,187.20
2019-06-20T19:47:49.305Z,209.25
2019-06-20T19:50:15.681Z,206.32
2019-06-20T19:52:41.749Z,185.28
2019-06-20T19:55:09.071Z,210.85
2019-06-20T19:57:35.158Z,189.97
2019-06-20T20:00:02.849Z,208.63
2019-06-20T20:02:28.931Z,197.55
2019-06-20T20:04:55.119Z,183.85
2019-06-20T20:07:21.197Z,253.83
2019-06-20T20:09:47.357Z,273.52
2019-06-20T20:12:13.454Z,214.68
2019-06-20T20:14:39.625Z,228.67
2019-06-20T20:17:05.809Z,267.43
2019-06-20T20:19:31.873Z,238.47
2019-06-20T20:21:57.970Z,230.77
2019-06-20T20:24:24.233Z,253.92
2019-06-20T20:26:50.304Z,252.35
2019-06-20T20:29:16.374Z,198.85
2019-06-20T20:31:42.427Z,191.88
2019-06-20T20:34:11.755Z,184.30
2019-06-20T20:36:36.817Z,224.07
2019-06-20T20:39:05.641Z,183.03
2019-06-20T20:41:31.707Z,189.82
2019-06-20T20:43:57.780Z,181.45
2019-06-20T20:46:23.864Z,179.35
2019-06-20T20:48:49.938Z,186.50
2019-06-20T20:51:16.116Z,191.53
2019-06-20T20:53:42.187Z,178.27
2019-06-20T20:56:08.282Z,176.05
2019-06-20T20:58:34.357Z,184.82
2019-06-20T21:01:06.986Z,224.92
2019-06-20T21:03:33.085Z,187.18
2019-06-20T21:05:59.240Z,176.40
2019-06-20T21:08:25.332Z,184.55
2019-06-20T21:10:51.497Z,171.47
2019-06-20T21:13:17.628Z,183.93
2019-06-20T21:15:43.756Z,187.75
2019-06-20T21:18:09.844Z,189.15
2019-06-20T21:20:35.927Z,237.78
2019-06-20T21:23:02.096Z,245.50
2019-06-20T21:25:31.906Z,196.02
2019-06-20T21:27:56.152Z,188.55
2019-06-20T21:30:22.646Z,249.55
2019-06-20T21:32:48.805Z,188.32
2019-06-20T21:35:15.417Z,181.97
2019-06-20T21:37:41.488Z,191.40
2019-06-20T21:40:08.958Z,176.87
2019-06-20T21:42:35.040Z,175.53
2019-06-20T21:45:01.109Z,177.90
2019-06-20T21:47:27.192Z,188.25
2019-06-20T21:49:53.259Z,185.67
2019-06-20T21:52:19.354Z,202.18
2019-06-20T21:54:45.428Z,184.15
2019-06-20T21:57:11.522Z,173.43
2019-06-20T21:59:37.707Z,174.35
2019-06-20T22:02:05.388Z,193.47
2019-06-20T22:04:31.573Z,164.60
2019-06-20T22:06:57.640Z,177.55
2019-06-20T22:09:23.709Z,164.22
2019-06-20T22:11:49.775Z,174.87
2019-06-20T22:14:15.861Z,178.00
2019-06-20T22:16:41.932Z,180.90
2019-06-20T22:19:08.032Z,175.35
2019-06-20T22:21:34.098Z,166.43
2019-06-20T22:24:00.170Z,172.13
2019-06-20T22:26:26.260Z,172.02
2019-06-20T22:28:52.324Z,166.12
2019-06-20T22:31:18.405Z,183.00
2019-06-20T22:33:44.478Z,174.10
2019-06-20T22:36:11.340Z,167.93
2019-06-20T22:38:37.412Z,165.80
2019-06-20T22:41:03.476Z,175.07
2019-06-20T22:43:29.566Z,171.37
2019-06-20T22:45:55.641Z,158.12
2019-06-20T22:48:21.830Z,161.03
2019-06-20T22:50:47.897Z,168.80
2019-06-20T22:53:13.992Z,166.47
2019-06-20T22:55:40.066Z,159.80
2019-06-20T22:58:06.336Z,162.57
2019-06-20T23:00:33.121Z,172.05
2019-06-20T23:02:59.223Z,163.00
2019-06-20T23:05:25.392Z,170.00
2019-06-20T23:07:51.456Z,158.10
2019-06-20T23:10:17.548Z,164.28
2019-06-20T23:12:43.620Z,165.28
2019-06-20T23:15:10.115Z,163.18
2019-06-20T23:17:36.200Z,167.40
2019-06-20T23:20:06.445Z,164.97
2019-06-20T23:22:32.512Z,156.22
2019-06-20T23:24:58.595Z,166.07
2019-06-20T23:27:24.682Z,160.30
2019-06-20T23:29:50.858Z,164.72
2019-06-20T23:32:17.029Z,160.50
2019-06-20T23:34:43.115Z,159.97
2019-06-20T23:37:13.058Z,166.25
2019-06-20T23:39:37.220Z,168.70
2019-06-20T23:42:03.302Z,165.77
2019-06-20T23:44:29.465Z,172.45
2019-06-20T23:46:55.549Z,231.38
2019-06-20T23:49:21.631Z,169.97
2019-06-20T23:51:49.616Z,167.57
2019-06-20T23:54:15.704Z,164.57
2019-06-20T23:56:41.883Z,160.78
2019-06-20T23:59:07.952Z,163.52
